Tinaja, New Mexico
Current Conditions -  °F | °C
As of 11:53 AM on Tuesday 27 Jan 2015 (Local Time) from KGUP Reporting Station
Clear Clear  
Wind Chill: 55°   Ceiling: Unl
Heat Index: 55°   Visibility: 10mi
Dew Point: 34°   Wind: 7mph
Humidity: 45%   Direction: NA
Pressure: 30.36"   Gusts: NA
Location:  35.1314°N, 108.496°W
Report Text: KGUP 271853Z AUTO VRB06KT 10SM CLR 13/01 A3036 RMK AO2 SLP250 T01280011
Loading
Personal Weather Stations






























Interactive Weather Map New forecast layout! Learn more

10-Day Weather Forecast

Advertisements
Track Severe Weather on mobile